Latest Weather Observations for Horn Island

IDQ60801

Issued at 9:03 pm EST Thursday 25 August 2016 (issued every 30 minutes, with the page automatically refreshed every 10 minutes)

About weather observations | Map of weather stations | Latest weather observations for QLD | Other Formats
Station Details ID: 027058 Name: HORN ISLAND Lat: -10.58 Lon: 142.29 Height: 4.0 m
Data from the previous 72 hours. | See also: Recent months at Horn Island
Date/Time
EST
Temp
°C
App
Temp
°C
Dew
Point
°C
Rel
Hum
%
Delta-T
°C
Wind Press
QNH
hPa
Press
MSL
hPa
Rain since
9am
mm
Dir  Spd
km/h
Gust
km/h
Spd
kts
Gust
kts
25/09:00pm 25.4 30.7 23.1 87 1.6 CALM 0 2 0 1 1011.9 1011.9 0.0
25/08:30pm 25.3 29.5 23.2 88 1.4 ESE 6 7 3 4 1011.4 - 0.0
25/08:00pm 25.6 30.9 23.1 86 1.7 CALM 0 0 0 0 1011.1 - 0.0
25/07:30pm 25.8 31.2 23.3 86 1.7 CALM 0 0 0 0 1010.9 - 0.0
25/07:00pm 26.1 31.7 23.6 86 1.7 CALM 0 6 0 3 1010.4 - 0.0
25/06:30pm 26.3 30.7 23.8 86 1.7 NE 7 9 4 5 1010.0 - 0.0
25/06:00pm 26.9 30.6 23.2 80 2.5 NE 9 11 5 6 1009.5 1009.5 0.0
25/05:30pm 27.9 31.3 23.3 76 3.1 ENE 11 13 6 7 1009.0 - 0.0
25/05:00pm 27.8 30.1 22.1 71 3.8 NNE 13 15 7 8 1008.8 - 0.0
25/04:30pm 28.4 30.3 21.4 66 4.7 NNE 13 20 7 11 1008.7 - 0.0
25/04:00pm 28.8 31.6 22.3 68 4.4 N 11 17 6 9 1008.6 - 0.0
25/03:30pm 28.4 31.0 22.6 71 3.9 N 13 19 7 10 1008.8 - 0.0
25/03:00pm 28.9 30.6 22.4 68 4.4 N 17 20 9 11 1009.0 1009.0 0.0
25/02:30pm 28.8 30.8 22.3 68 4.4 N 15 20 8 11 1009.3 - 0.0
25/02:00pm 30.5 32.8 22.1 61 5.7 E 13 19 7 10 1009.6 - 0.0
25/01:30pm 29.7 30.6 21.6 61 5.4 E 19 26 10 14 1010.0 - 0.0
25/01:00pm 30.6 32.8 21.1 57 6.4 E 11 20 6 11 1010.2 - 0.0
25/12:30pm 29.7 31.5 20.3 57 6.2 S 11 19 6 10 1010.6 - 0.0
25/12:00pm 29.3 31.2 20.5 59 5.8 SSE 11 15 6 8 1011.0 1011.0 0.0
25/11:30am 29.1 31.0 20.5 59 5.7 S 11 19 6 10 1011.5 - 0.0
25/11:00am 28.5 30.5 20.8 63 5.1 SSE 11 15 6 8 1011.7 - 0.0
25/10:30am 28.5 30.6 21.0 64 5.0 S 11 15 6 8 1012.0 - 0.0
25/10:00am 27.8 31.1 21.8 70 4.0 S 7 9 4 5 1012.1 - 0.0
25/09:30am 27.1 31.0 23.6 81 2.4 S 9 11 5 6 1012.1 - 0.0
25/09:00am 26.0 28.9 23.1 84 2.0 S 13 15 7 8 1012.0 1012.0 0.0
25/08:30am 25.5 29.7 24.1 92 1.0 S 9 11 5 6 1011.8 - 0.0
25/08:00am 25.1 29.7 24.2 95 0.6 S 7 11 4 6 1011.7 - 0.0
25/07:30am 24.8 29.1 24.3 97 0.3 S 9 11 5 6 1011.6 - 0.0
25/07:00am 24.6 29.1 23.9 96 0.5 SSW 7 9 4 5 1011.5 - 0.0
25/06:37am 24.3 29.9 23.6 96 0.5 CALM 0 0 0 0 1011.2 - 0.0
25/06:30am 24.2 29.6 23.3 95 0.6 CALM 0 0 0 0 1011.1 - 0.0
25/06:17am 24.3 29.8 23.4 95 0.6 CALM 0 0 0 0 1011.0 - 0.0
25/06:13am 24.2 29.6 23.3 95 0.6 CALM 0 0 0 0 1011.0 - 0.0
25/06:00am 24.3 29.8 23.4 95 0.6 CALM 0 0 0 0 1010.8 1010.8 0.0
25/05:39am 24.1 29.5 23.2 95 0.6 CALM 0 0 0 0 1010.7 - 0.0
25/05:30am 24.2 29.6 23.3 95 0.6 CALM 0 0 0 0 1010.6 - 0.0
25/05:00am 24.4 29.9 23.4 94 0.7 CALM 0 0 0 0 1010.6 - 0.0
25/04:31am 24.4 29.9 23.4 94 0.7 CALM 0 0 0 0 1010.6 - 0.0
25/04:30am 24.4 29.9 23.4 94 0.7 CALM 0 0 0 0 1010.6 - 0.0
25/04:00am 24.4 29.9 23.4 94 0.7 CALM 0 0 0 0 1010.5 - 0.0
25/03:35am 24.4 29.8 23.2 93 0.8 CALM 0 0 0 0 1010.5 - 0.0
25/03:30am 24.3 29.6 23.1 93 0.8 CALM 0 0 0 0 1010.5 - 0.0
25/03:22am 24.4 29.8 23.2 93 0.8 CALM 0 0 0 0 1010.4 - 0.0
25/03:00am 24.8 30.4 23.6 93 0.8 CALM 0 0 0 0 1010.3 1010.3 0.0
25/02:47am 24.7 30.1 23.3 92 1.0 CALM 0 0 0 0 1010.3 - 0.0
25/02:30am 25.0 30.5 23.4 91 1.1 CALM 0 0 0 0 1010.3 - 0.0
25/02:00am 25.4 29.8 23.8 91 1.1 ESE 7 9 4 5 1010.6 - 0.0
25/01:50am 25.4 30.0 23.8 91 1.1 ESE 6 7 3 4 1010.6 - 0.0
25/01:30am 25.5 30.0 23.7 90 1.2 SE 6 7 3 4 1010.9 - 0.0
25/01:00am 25.5 30.0 23.9 91 1.1 E 7 11 4 6 1011.2 - 0.0
25/12:39am 25.5 30.0 23.9 91 1.1 E 7 9 4 5 1011.3 - 0.0
25/12:30am 25.4 29.8 23.8 91 1.1 E 7 11 4 6 1011.5 - 0.0
25/12:00am 25.4 29.8 23.8 91 1.1 E 7 13 4 7 1011.8 1011.8 0.0
 
Date/Time
EST
Temp
°C
App
Temp
°C
Dew
Point
°C
Rel
Hum
%
Delta-T
°C
Wind Press
QNH
hPa
Press
MSL
hPa
Rain since
9am
mm
Dir  Spd
km/h
Gust
km/h
Spd
kts
Gust
kts
24/11:30pm 25.4 29.4 23.8 91 1.1 E 9 13 5 7 1011.7 - 0.0
24/11:00pm 25.3 29.4 23.9 92 1.0 E 9 13 5 7 1011.8 - 0.0
24/10:30pm 25.2 29.6 23.8 92 1.0 E 7 11 4 6 1012.1 - 0.0
24/10:10pm 25.2 29.6 23.8 92 1.0 E 7 11 4 6 1012.0 - 0.0
24/10:00pm 25.2 29.6 23.8 92 1.0 E 7 9 4 5 1012.0 - 0.0
24/09:42pm 25.3 29.8 23.9 92 1.0 E 7 9 4 5 1012.0 - 0.0
24/09:30pm 25.3 29.4 23.9 92 1.0 E 9 11 5 6 1012.0 - 0.0
24/09:00pm 25.2 29.5 23.6 91 1.1 E 7 9 4 5 1011.9 1011.9 0.0
24/08:30pm 25.5 29.6 23.9 91 1.1 E 9 11 5 6 1011.5 - 0.0
24/08:00pm 25.6 29.6 23.8 90 1.2 E 9 13 5 7 1011.3 - 0.0
24/07:30pm 25.7 29.7 23.7 89 1.4 E 9 15 5 8 1010.9 - 0.0
24/07:00pm 25.8 29.4 23.7 88 1.4 E 11 15 6 8 1010.4 - 0.0
24/06:30pm 26.0 28.7 23.5 86 1.7 E 15 19 8 10 1009.8 - 0.0
24/06:00pm 26.5 29.2 23.4 83 2.1 E 15 19 8 10 1009.1 1009.1 0.0
24/05:30pm 26.8 29.5 22.8 79 2.7 ENE 13 19 7 10 1008.8 - 0.0
24/05:00pm 27.4 29.8 23.0 77 3.0 E 15 22 8 12 1008.7 - 0.0
24/04:30pm 27.6 29.6 23.0 76 3.1 E 17 24 9 13 1008.6 - 0.0
24/04:00pm 27.6 29.3 23.0 76 3.1 E 19 26 10 14 1008.5 - 0.0
24/03:30pm 28.5 30.7 23.2 73 3.6 ENE 17 24 9 13 1008.4 - 0.0
24/03:00pm 27.8 29.5 23.0 75 3.3 ENE 19 24 10 13 1008.8 1008.8 0.0
24/02:30pm 27.4 29.4 23.0 77 3.0 E 17 20 9 11 1009.2 - 0.0
24/02:00pm 28.0 30.4 23.6 77 3.0 E 17 20 9 11 1009.6 - 0.0
24/01:30pm 28.1 30.3 23.2 74 3.3 E 17 24 9 13 1009.9 - 0.0
24/01:00pm 27.7 29.9 22.6 74 3.5 E 15 20 8 11 1010.4 - 0.0
24/12:39pm 28.5 29.9 22.5 70 4.1 E 19 26 10 14 1010.8 - 0.0
24/12:30pm 28.0 29.2 22.2 70 3.9 ENE 19 26 10 14 1010.9 - 0.0
24/12:00pm 28.6 30.2 22.1 68 4.4 E 17 22 9 12 1011.4 1011.4 0.0
24/11:30am 28.5 30.4 22.7 71 3.9 E 17 22 9 12 1011.8 - 0.0
24/11:00am 28.2 30.3 22.4 71 3.9 E 15 22 8 12 1012.1 - 0.0
24/10:30am 27.6 29.6 22.3 73 3.6 E 15 20 8 11 1012.3 - 0.0
24/10:00am 27.8 30.4 22.7 74 3.5 ENE 13 19 7 10 1012.5 - 0.0
24/09:30am 27.4 30.2 23.0 77 3.0 E 13 19 7 10 1012.7 - 0.0
24/09:00am 27.3 30.3 23.3 79 2.7 ENE 13 17 7 9 1012.6 1012.6 0.0
24/08:30am 26.5 28.7 22.6 79 2.6 ESE 15 20 8 11 1012.0 - 0.0
24/08:00am 25.6 28.3 22.9 85 1.8 E 13 17 7 9 1011.3 - 0.0
24/07:45am 25.4 29.0 23.1 87 1.6 ESE 9 17 5 9 1011.1 - 0.0
24/07:30am 25.3 29.4 23.2 88 1.4 E 7 11 4 6 1010.8 - 0.0
24/07:00am 24.5 28.7 23.1 92 0.9 SSE 6 7 3 4 1010.6 - 0.0
24/06:30am 24.6 28.4 22.8 90 1.2 E 7 11 4 6 1010.3 - 0.0
24/06:15am 24.7 28.5 22.8 89 1.3 ESE 7 9 4 5 1010.2 - 0.0
24/06:00am 24.9 28.5 23.0 89 1.3 E 9 15 5 8 1010.0 1010.0 0.0
24/05:30am 24.9 28.5 23.1 90 1.2 ESE 9 17 5 9 1009.9 - 0.0
24/05:03am 24.6 28.7 23.2 92 0.9 SE 7 11 4 6 1009.6 - 0.0
24/05:00am 24.6 28.7 23.2 92 0.9 SE 7 9 4 5 1009.6 - 0.0
24/04:30am 24.8 28.9 23.2 91 1.1 ESE 7 11 4 6 1009.4 - 0.0
24/04:01am 24.8 28.1 23.2 91 1.1 ESE 11 13 6 7 1009.3 - 0.0
24/04:00am 24.9 28.3 23.3 91 1.1 ESE 11 15 6 8 1009.3 - 0.0
24/03:30am 24.9 29.0 23.3 91 1.1 E 7 9 4 5 1009.4 - 0.0
24/03:22am 24.9 29.0 23.3 91 1.1 E 7 11 4 6 1009.4 - 0.0
24/03:00am 25.0 28.7 23.2 90 1.2 E 9 11 5 6 1009.5 1009.5 0.0
24/02:54am 25.0 28.7 23.2 90 1.2 E 9 15 5 8 1009.5 - 0.0
24/02:30am 25.2 28.6 23.3 89 1.3 E 11 15 6 8 1009.7 - 0.0
24/02:00am 25.1 28.5 23.3 90 1.2 E 11 17 6 9 1009.8 - 0.0
24/01:30am 25.2 28.2 23.3 89 1.3 ESE 13 17 7 9 1009.9 - 0.0
24/01:00am 25.2 28.6 23.3 89 1.3 ESE 11 17 6 9 1010.1 - 0.0
24/12:30am 25.3 28.0 23.4 89 1.3 E 15 22 8 12 1010.4 - 0.0
24/12:00am 25.4 28.0 23.3 88 1.4 E 15 20 8 11 1010.7 1010.7 0.0
 
Date/Time
EST
Temp
°C
App
Temp
°C
Dew
Point
°C
Rel
Hum
%
Delta-T
°C
Wind Press
QNH
hPa
Press
MSL
hPa
Rain since
9am
mm
Dir  Spd
km/h
Gust
km/h
Spd
kts
Gust
kts
23/11:41pm 25.3 28.0 23.4 89 1.3 E 15 20 8 11 1010.8 - 0.0
23/11:30pm 25.3 27.8 23.2 88 1.4 ESE 15 20 8 11 1010.8 - 0.0
23/11:19pm 25.3 27.5 23.2 88 1.4 ESE 17 24 9 13 1010.7 - 0.0
23/11:00pm 25.4 27.1 23.1 87 1.6 ESE 19 22 10 12 1010.7 - 0.0
23/10:36pm 25.4 27.5 23.1 87 1.6 ESE 17 24 9 13 1010.7 - 0.0
23/10:30pm 25.4 27.5 23.1 87 1.6 ESE 17 26 9 14 1010.7 - 0.0
23/10:00pm 25.4 27.5 23.1 87 1.6 ESE 17 26 9 14 1010.9 - 0.0
23/09:41pm 25.5 27.2 23.0 86 1.7 E 19 30 10 16 1011.0 - 0.0
23/09:30pm 25.5 27.2 23.0 86 1.7 E 19 24 10 13 1011.0 - 0.0
23/09:26pm 25.6 27.3 23.1 86 1.7 ESE 19 24 10 13 1011.0 - 0.0
23/09:00pm 25.5 27.5 23.0 86 1.7 E 17 24 9 13 1010.8 1010.8 0.0
23/08:42pm 25.5 27.1 22.8 85 1.8 E 19 28 10 15 1010.8 - 0.0
23/08:30pm 25.5 27.1 22.8 85 1.8 E 19 24 10 13 1010.7 - 0.0
23/08:03pm 25.6 27.3 23.1 86 1.7 E 19 26 10 14 1010.4 - 0.0
23/08:00pm 25.6 27.3 23.1 86 1.7 E 19 28 10 15 1010.4 - 0.0
23/07:30pm 25.6 26.9 22.7 84 2.0 E 20 26 11 14 1009.9 - 0.0
23/07:00pm 25.6 27.6 22.9 85 1.8 E 17 24 9 13 1009.5 - 0.0
23/06:30pm 25.9 26.9 22.8 83 2.1 E 22 28 12 15 1009.1 - 0.0
23/06:00pm 26.5 27.8 22.3 78 2.8 E 19 26 10 14 1008.7 1008.7 0.0
23/05:30pm 27.2 27.7 22.6 76 3.1 E 24 32 13 17 1008.2 - 0.0
23/05:00pm 27.7 28.4 22.2 72 3.7 E 22 33 12 18 1008.0 - 0.0
23/04:30pm 27.9 28.0 21.9 70 4.0 ESE 24 33 13 18 1007.9 - 0.0
23/04:00pm 28.2 28.2 21.7 68 4.4 E 24 33 13 18 1007.9 - 0.0
23/03:30pm 28.2 27.6 21.2 65 4.7 E 26 35 14 19 1008.1 - 0.0
23/03:00pm 28.1 27.8 21.9 69 4.2 E 26 35 14 19 1008.3 1008.3 0.0
23/02:30pm 29.0 28.2 21.7 64 4.9 E 28 35 15 19 1008.6 - 0.0
23/02:00pm 28.9 28.8 21.4 64 5.0 E 24 35 13 19 1008.7 - 0.0
23/01:30pm 28.6 27.3 20.6 62 5.3 ESE 28 37 15 20 1009.1 - 0.0
23/01:00pm 29.2 29.0 21.2 62 5.3 E 24 35 13 19 1009.5 - 0.0
23/12:30pm 28.4 27.9 21.4 66 4.7 E 26 35 14 19 1010.0 - 0.0
23/12:00pm 28.5 27.9 22.0 68 4.4 E 28 37 15 20 1010.5 1010.5 0.0
23/11:30am 28.9 29.3 22.4 68 4.4 E 24 32 13 17 1011.0 - 0.0
23/11:02am 28.3 28.4 22.5 71 3.9 E 26 35 14 19 1011.3 - 0.0
23/11:00am 27.9 27.7 22.1 70 3.9 E 26 35 14 19 1011.4 - 0.0
23/10:30am 28.2 28.4 22.7 72 3.7 ESE 26 35 14 19 1011.6 - 0.0
23/10:00am 27.6 28.2 22.8 75 3.3 E 24 35 13 19 1011.7 - 0.0
23/09:49am 27.3 26.9 22.3 74 3.4 E 28 33 15 18 1011.8 - 0.0
23/09:30am 27.3 27.5 22.0 73 3.6 E 24 32 13 17 1011.8 - 0.0
23/09:02am 26.9 27.2 22.3 76 3.1 E 24 32 13 17 1011.7 - 0.0
23/09:00am 26.8 27.1 22.2 76 3.1 E 24 32 13 17 1011.6 1011.6 0.0
23/08:30am 26.2 27.5 22.3 79 2.6 ESE 19 26 10 14 1011.5 - 0.0
23/08:00am 25.8 27.6 22.5 82 2.2 ESE 17 22 9 12 1011.4 - 0.0
23/07:30am 25.5 27.3 22.6 84 2.0 ESE 17 24 9 13 1011.0 - 0.0
23/07:05am 25.3 27.1 22.6 85 1.8 ESE 17 24 9 13 1011.0 - 0.0
23/07:01am 25.3 26.6 22.4 84 1.9 ESE 19 24 10 13 1011.0 - 0.0
23/07:00am 25.3 26.6 22.4 84 1.9 ESE 19 24 10 13 1011.0 - 0.0
23/06:30am 25.2 26.9 22.3 84 1.9 ESE 17 22 9 12 1010.6 - 0.0
23/06:00am 25.2 27.2 22.3 84 1.9 ESE 15 20 8 11 1010.3 1010.3 0.0
23/05:30am 25.1 26.7 22.2 84 1.9 E 17 24 9 13 1010.0 - 0.0
23/05:15am 25.2 26.9 22.3 84 1.9 E 17 24 9 13 1010.0 - 0.0
23/05:00am 25.1 26.3 22.2 84 1.9 E 19 24 10 13 1009.8 - 0.0
23/04:30am 25.2 26.5 22.3 84 1.9 E 19 24 10 13 1009.7 - 0.0
23/04:00am 25.0 26.4 21.9 83 2.1 E 17 26 9 14 1009.7 - 0.0
23/03:30am 25.2 26.2 22.1 83 2.1 E 20 28 11 15 1009.7 - 0.0
23/03:00am 25.0 26.1 21.9 83 2.1 E 19 22 10 12 1009.8 1009.8 0.0
23/02:30am 25.0 25.9 21.9 83 2.1 E 20 28 11 15 1009.9 - 0.0
23/02:29am 25.0 25.9 21.9 83 2.1 E 20 28 11 15 1009.9 - 0.0
23/02:00am 25.0 25.5 21.9 83 2.1 E 22 32 12 17 1009.9 - 0.0
23/01:47am 24.9 25.6 21.6 82 2.2 E 20 28 11 15 1010.0 - 0.0
23/01:30am 25.0 25.8 21.7 82 2.2 E 20 30 11 16 1010.3 - 0.0
23/01:00am 25.1 26.0 22.0 83 2.1 E 20 30 11 16 1010.5 - 0.0
23/12:30am 25.2 25.8 22.1 83 2.1 E 22 30 12 16 1010.7 - 0.0
23/12:00am 25.1 25.2 21.8 82 2.2 E 24 32 13 17 1010.8 1010.8 0.0
 
Date/Time
EST
Temp
°C
App
Temp
°C
Dew
Point
°C
Rel
Hum
%
Delta-T
°C
Wind Press
QNH
hPa
Press
MSL
hPa
Rain since
9am
mm
Dir  Spd
km/h
Gust
km/h
Spd
kts
Gust
kts
22/11:30pm 25.2 25.2 21.7 81 2.3 E 24 32 13 17 1011.1 - 0.0
22/11:00pm 25.1 25.9 21.8 82 2.2 E 20 28 11 15 1011.2 - 0.0
22/10:30pm 25.1 26.0 21.6 81 2.3 ESE 19 26 10 14 1011.2 - 0.0
22/10:00pm 25.2 25.7 21.9 82 2.2 E 22 32 12 17 1011.1 - 0.0
22/09:30pm 25.1 25.6 22.0 83 2.1 ESE 22 30 12 16 1010.9 - 0.0

Other Formats:

Comma delimited format used in spreadsheet applications
http://www.bom.gov.au/fwo/IDQ60801/IDQ60801.94174.axf

JavaScript Object Notation format (JSON) in row-major order
http://www.bom.gov.au/fwo/IDQ60801/IDQ60801.94174.json